createdAt,value
2019-05-11T00:00:07.505Z,17.27
2019-05-11T00:02:36.088Z,17.20
2019-05-11T00:05:04.736Z,17.87
2019-05-11T00:07:33.128Z,17.47
2019-05-11T00:10:01.607Z,18.03
2019-05-11T00:12:30.509Z,20.37
2019-05-11T00:14:59.263Z,20.37
2019-05-11T00:17:27.850Z,22.13
2019-05-11T00:19:56.843Z,19.40
2019-05-11T00:22:25.310Z,17.50
2019-05-11T00:24:53.661Z,17.83
2019-05-11T00:27:22.279Z,18.23
2019-05-11T00:29:50.609Z,18.63
2019-05-11T00:32:22.642Z,17.67
2019-05-11T00:34:48.113Z,18.70
2019-05-11T00:37:16.595Z,18.67
2019-05-11T00:39:45.570Z,17.17
2019-05-11T00:42:14.391Z,19.30
2019-05-11T00:44:42.915Z,14.00
2019-05-11T00:47:11.563Z,16.30
2019-05-11T00:49:40.139Z,18.87
2019-05-11T00:52:08.450Z,19.37
2019-05-11T00:54:36.834Z,17.80
2019-05-11T00:57:05.580Z,11.70
2019-05-11T00:59:34.315Z,17.23
2019-05-11T01:02:02.784Z,17.83
2019-05-11T01:04:31.466Z,17.40
2019-05-11T01:06:59.983Z,14.73
2019-05-11T01:09:28.240Z,18.50
2019-05-11T01:11:56.766Z,19.73
2019-05-11T01:14:25.197Z,19.77
2019-05-11T01:16:53.522Z,17.63
2019-05-11T01:19:22.210Z,19.27
2019-05-11T01:21:50.727Z,19.70
2019-05-11T01:24:19.123Z,12.97
2019-05-11T01:26:47.965Z,17.93
2019-05-11T01:29:16.473Z,18.17
2019-05-11T01:31:44.841Z,19.37
2019-05-11T01:34:13.842Z,23.90
2019-05-11T01:36:43.008Z,22.00
2019-05-11T01:39:11.433Z,20.40
2019-05-11T01:41:40.206Z,20.00
2019-05-11T01:44:08.700Z,20.27
2019-05-11T01:46:37.026Z,21.27
2019-05-11T01:49:05.518Z,19.50
2019-05-11T01:51:34.137Z,20.27
2019-05-11T01:54:02.734Z,20.00
2019-05-11T01:56:31.699Z,20.83
2019-05-11T01:59:00.252Z,19.67
2019-05-11T02:01:28.894Z,17.37
2019-05-11T02:03:57.743Z,18.93
2019-05-11T02:06:26.756Z,17.67
2019-05-11T02:08:55.541Z,20.90
2019-05-11T02:11:24.421Z,20.03
2019-05-11T02:13:52.795Z,18.27
2019-05-11T02:16:21.426Z,17.93
2019-05-11T02:18:50.032Z,18.57
2019-05-11T02:21:24.963Z,17.10
2019-05-11T02:23:53.989Z,17.13
2019-05-11T02:26:22.675Z,16.80
2019-05-11T02:28:50.989Z,17.07
2019-05-11T02:31:20.045Z,18.20
2019-05-11T02:33:48.392Z,18.20
2019-05-11T02:36:16.725Z,16.93
2019-05-11T02:38:45.950Z,17.83
2019-05-11T02:41:14.543Z,17.90
2019-05-11T02:43:43.438Z,16.07
2019-05-11T02:46:12.323Z,17.00
2019-05-11T02:48:40.639Z,16.13
2019-05-11T02:51:09.218Z,15.97
2019-05-11T02:53:38.080Z,18.20
2019-05-11T02:56:06.561Z,18.27
2019-05-11T02:58:35.228Z,19.43
2019-05-11T03:01:04.026Z,18.50
2019-05-11T03:03:32.616Z,17.93
2019-05-11T03:06:01.072Z,18.37
2019-05-11T03:08:29.702Z,17.53
2019-05-11T03:10:58.385Z,18.10
2019-05-11T03:13:26.804Z,18.03
2019-05-11T03:15:55.305Z,16.03
2019-05-11T03:18:23.621Z,15.03
2019-05-11T03:20:51.997Z,14.53
2019-05-11T03:23:20.858Z,14.63
2019-05-11T03:25:49.229Z,15.70
2019-05-11T03:28:17.595Z,15.13
2019-05-11T03:30:46.027Z,14.27
2019-05-11T03:33:14.552Z,11.60
2019-05-11T03:35:42.885Z,14.77
2019-05-11T03:38:11.464Z,16.63
2019-05-11T03:40:39.888Z,13.47
2019-05-11T03:43:08.303Z,14.57
2019-05-11T03:45:36.902Z,14.97
2019-05-11T03:48:05.414Z,13.30
2019-05-11T03:50:33.787Z,13.70
2019-05-11T03:53:02.649Z,13.03
2019-05-11T03:55:31.357Z,12.90
2019-05-11T03:57:59.768Z,12.00
2019-05-11T04:00:28.551Z,10.97
2019-05-11T04:02:57.040Z,12.03
2019-05-11T04:05:25.767Z,10.97
2019-05-11T04:07:55.069Z,10.43
2019-05-11T04:10:25.410Z,11.47
2019-05-11T04:12:52.111Z,10.70
2019-05-11T04:15:20.673Z,11.43
2019-05-11T04:17:49.042Z,11.40
2019-05-11T04:20:17.566Z,11.07
2019-05-11T04:22:46.095Z,11.40
2019-05-11T04:25:14.634Z,11.30
2019-05-11T04:27:43.318Z,10.87
2019-05-11T04:30:11.835Z,10.23
2019-05-11T04:32:40.242Z,12.47
2019-05-11T04:35:08.603Z,10.93
2019-05-11T04:37:37.318Z,11.87
2019-05-11T04:40:06.030Z,10.80
2019-05-11T04:42:51.793Z,10.57
2019-05-11T04:45:03.350Z,10.93
2019-05-11T04:47:31.879Z,10.33
2019-05-11T04:50:00.428Z,10.17
2019-05-11T04:52:29.243Z,10.57
2019-05-11T04:54:57.568Z,9.83
2019-05-11T04:57:25.969Z,10.53
2019-05-11T04:59:54.991Z,9.70
2019-05-11T05:02:23.674Z,9.80
2019-05-11T05:04:52.223Z,9.97
2019-05-11T05:07:21.043Z,10.27
2019-05-11T05:09:49.421Z,9.90
2019-05-11T05:12:18.266Z,9.07
2019-05-11T05:14:46.990Z,8.53
2019-05-11T05:17:15.336Z,9.93
2019-05-11T05:19:43.672Z,8.43
2019-05-11T05:22:13.309Z,9.80
2019-05-11T05:24:41.611Z,9.27
2019-05-11T05:27:10.026Z,8.63
2019-05-11T05:29:38.590Z,8.90
2019-05-11T05:32:07.226Z,8.17
2019-05-11T05:34:35.617Z,8.53
2019-05-11T05:37:04.029Z,8.70
2019-05-11T05:39:32.414Z,8.40
2019-05-11T05:42:00.795Z,8.57
2019-05-11T05:44:29.660Z,7.40
2019-05-11T05:46:58.348Z,7.77
2019-05-11T05:49:26.767Z,7.70
2019-05-11T05:51:58.495Z,7.27
2019-05-11T05:54:24.790Z,7.77
2019-05-11T05:56:53.169Z,7.60
2019-05-11T05:59:21.641Z,6.77
2019-05-11T06:01:50.392Z,6.43
2019-05-11T06:04:18.698Z,6.37
2019-05-11T06:06:47.636Z,6.80
2019-05-11T06:09:16.015Z,6.20
2019-05-11T06:11:44.462Z,6.67
2019-05-11T06:14:13.383Z,7.23
2019-05-11T06:16:41.689Z,6.17
2019-05-11T06:19:10.393Z,6.10
2019-05-11T06:21:38.984Z,5.90
2019-05-11T06:24:08.467Z,6.03
2019-05-11T06:26:36.208Z,6.00
2019-05-11T06:29:05.042Z,5.70
2019-05-11T06:31:34.200Z,6.27
2019-05-11T06:34:02.570Z,5.37
2019-05-11T06:36:31.378Z,5.77
2019-05-11T06:38:59.695Z,4.83
2019-05-11T06:41:28.201Z,5.23
2019-05-11T06:44:01.882Z,4.80
2019-05-11T06:46:25.905Z,5.63
2019-05-11T06:48:54.224Z,5.43
2019-05-11T06:51:23.654Z,5.40
2019-05-11T06:53:52.321Z,5.57
2019-05-11T06:56:20.679Z,5.40
2019-05-11T06:58:49.375Z,5.30
2019-05-11T07:01:18.087Z,5.03
2019-05-11T07:03:46.417Z,5.40
2019-05-11T07:06:14.925Z,4.90
2019-05-11T07:08:43.436Z,4.60
2019-05-11T07:11:11.794Z,4.93
2019-05-11T07:13:40.586Z,4.10
2019-05-11T07:16:09.276Z,5.03
2019-05-11T07:18:37.611Z,4.17
2019-05-11T07:21:06.187Z,4.03
2019-05-11T07:23:34.716Z,4.20
2019-05-11T07:26:03.368Z,4.13
2019-05-11T07:28:32.081Z,4.20
2019-05-11T07:31:00.430Z,3.63
2019-05-11T07:33:28.855Z,4.10
2019-05-11T07:35:58.279Z,3.30
2019-05-11T07:38:27.806Z,3.80
2019-05-11T07:40:54.585Z,3.80
2019-05-11T07:43:23.122Z,4.10
2019-05-11T07:45:51.535Z,4.10
2019-05-11T07:48:19.985Z,3.70
2019-05-11T07:50:49.020Z,3.63
2019-05-11T07:53:18.580Z,3.27
2019-05-11T07:55:48.338Z,3.50
2019-05-11T07:58:14.849Z,3.30
2019-05-11T08:00:43.450Z,3.00
2019-05-11T08:03:11.782Z,3.30
2019-05-11T08:05:40.670Z,3.10
2019-05-11T08:08:09.198Z,3.50
2019-05-11T08:10:39.001Z,3.27
2019-05-11T08:13:08.934Z,4.43
2019-05-11T08:15:35.239Z,4.43
2019-05-11T08:18:03.785Z,4.30
2019-05-11T08:20:32.618Z,3.20
2019-05-11T08:23:01.259Z,2.90
2019-05-11T08:25:29.787Z,3.00
2019-05-11T08:27:58.951Z,2.97
2019-05-11T08:30:27.792Z,3.70
2019-05-11T08:32:55.325Z,3.27
2019-05-11T08:35:27.519Z,3.33
2019-05-11T08:37:52.499Z,3.10
2019-05-11T08:40:21.472Z,3.43
2019-05-11T08:42:50.484Z,3.70
2019-05-11T08:56:50.851Z,3.27
2019-05-11T09:07:58.450Z,2.70
2019-05-11T09:10:28.098Z,2.87
2019-05-11T09:12:55.219Z,2.73
2019-05-11T09:15:33.483Z,2.67
2019-05-11T09:17:52.246Z,3.33
2019-05-11T09:20:20.641Z,3.37
2019-05-11T09:22:49.402Z,3.27
2019-05-11T09:25:18.589Z,2.70
2019-05-11T09:27:48.284Z,3.03
2019-05-11T09:30:15.773Z,2.63
2019-05-11T09:32:44.193Z,2.90
2019-05-11T09:35:12.611Z,3.03
2019-05-11T09:37:41.417Z,3.33
2019-05-11T09:40:09.825Z,3.00
2019-05-11T09:42:39.018Z,2.90
2019-05-11T09:45:08.054Z,2.60
2019-05-11T09:47:35.827Z,2.70
2019-05-11T09:50:04.323Z,2.67
2019-05-11T09:52:33.316Z,2.80
2019-05-11T09:55:01.709Z,2.60
2019-05-11T09:57:30.092Z,2.60
2019-05-11T09:59:58.612Z,2.80
2019-05-11T10:02:27.937Z,2.53
2019-05-11T10:04:57.685Z,2.60
2019-05-11T10:07:24.189Z,2.80
2019-05-11T10:09:52.823Z,2.77
2019-05-11T10:12:21.244Z,2.83
2019-05-11T10:14:50.120Z,2.87
2019-05-11T10:17:18.521Z,2.97
2019-05-11T10:19:49.516Z,2.73
2019-05-11T10:22:15.857Z,2.50
2019-05-11T10:24:44.677Z,2.60
2019-05-11T10:27:13.069Z,2.90
2019-05-11T10:29:41.776Z,2.73
2019-05-11T10:32:10.424Z,2.40
2019-05-11T10:34:39.051Z,2.47
2019-05-11T10:37:08.509Z,2.40
2019-05-11T10:39:38.306Z,2.57
2019-05-11T10:42:04.743Z,2.40
2019-05-11T10:44:33.563Z,2.33
2019-05-11T10:47:01.911Z,2.70
2019-05-11T10:49:30.508Z,2.37
2019-05-11T10:51:59.445Z,2.47
2019-05-11T10:54:28.744Z,2.53
2019-05-11T10:56:57.911Z,2.33
2019-05-11T10:59:25.106Z,2.63
2019-05-11T11:01:53.628Z,2.40
2019-05-11T11:04:22.073Z,2.37
2019-05-11T11:06:50.770Z,2.50
2019-05-11T11:09:19.123Z,2.30
2019-05-11T11:11:48.872Z,2.43
2019-05-11T11:14:18.042Z,2.37
2019-05-11T11:16:44.907Z,2.13
2019-05-11T11:19:13.249Z,2.80
2019-05-11T11:21:41.863Z,2.20
2019-05-11T11:24:10.514Z,2.60
2019-05-11T11:26:38.890Z,2.00
2019-05-11T11:29:08.527Z,2.33
2019-05-11T11:31:37.994Z,2.33
2019-05-11T11:34:04.791Z,2.00
2019-05-11T11:36:33.313Z,2.40
2019-05-11T11:39:01.644Z,2.60
2019-05-11T11:41:30.133Z,2.27
2019-05-11T11:43:58.904Z,2.10
2019-05-11T11:46:27.767Z,1.87
2019-05-11T11:48:57.875Z,1.90
2019-05-11T11:51:24.658Z,2.00
2019-05-11T11:53:53.044Z,1.90
2019-05-11T11:56:21.489Z,1.93
2019-05-11T11:58:49.948Z,1.97
2019-05-11T12:01:19.155Z,1.77
2019-05-11T12:03:48.799Z,2.00
2019-05-11T12:06:17.946Z,1.83
2019-05-11T12:08:44.225Z,1.80
2019-05-11T12:11:12.622Z,1.93
2019-05-11T12:13:41.584Z,1.97
2019-05-11T12:16:09.953Z,2.00
2019-05-11T12:18:38.439Z,2.00
2019-05-11T12:21:07.999Z,2.03
2019-05-11T12:23:38.116Z,1.87
2019-05-11T12:26:04.702Z,1.90
2019-05-11T12:28:33.694Z,2.03
2019-05-11T12:31:02.009Z,1.80
2019-05-11T12:33:30.312Z,1.80
2019-05-11T12:35:59.134Z,1.80
2019-05-11T12:38:27.806Z,1.90
2019-05-11T12:40:57.870Z,1.63
2019-05-11T12:43:25.054Z,1.80
2019-05-11T12:45:53.401Z,1.93
2019-05-11T12:48:21.744Z,2.30
2019-05-11T12:50:50.486Z,1.93
2019-05-11T12:53:18.983Z,1.80
2019-05-11T12:55:48.368Z,1.87
2019-05-11T12:58:18.175Z,1.90
2019-05-11T13:00:44.960Z,2.57
2019-05-11T13:03:13.289Z,1.90
2019-05-11T13:05:41.975Z,1.73
2019-05-11T13:08:10.328Z,1.90
2019-05-11T13:10:38.761Z,1.80
2019-05-11T13:13:08.879Z,2.13
2019-05-11T13:15:42.665Z,1.77
2019-05-11T13:18:11.690Z,1.90
2019-05-11T13:20:40.123Z,1.70
2019-05-11T13:23:08.452Z,1.77
2019-05-11T13:25:38.801Z,1.83
2019-05-11T13:28:08.390Z,1.60
2019-05-11T13:30:34.477Z,1.60
2019-05-11T13:33:03.044Z,1.80
2019-05-11T13:35:31.455Z,1.87
2019-05-11T13:37:59.820Z,1.60
2019-05-11T13:40:28.624Z,1.73
2019-05-11T13:42:58.113Z,1.80
2019-05-11T13:45:28.055Z,1.70
2019-05-11T13:47:58.456Z,1.53
2019-05-11T13:50:23.875Z,1.50
2019-05-11T13:52:52.183Z,1.83
2019-05-11T13:55:20.637Z,1.50
2019-05-11T13:57:49.243Z,1.50
2019-05-11T14:00:17.809Z,1.63
2019-05-11T14:02:48.477Z,2.00
2019-05-11T14:05:15.250Z,1.93
2019-05-11T14:07:43.559Z,1.80
2019-05-11T14:10:12.377Z,1.63
2019-05-11T14:12:40.962Z,1.63
2019-05-11T14:15:09.623Z,1.80
2019-05-11T14:17:38.222Z,2.00
2019-05-11T14:20:08.893Z,2.90
2019-05-11T14:22:35.318Z,1.97
2019-05-11T14:25:04.176Z,1.63
2019-05-11T14:27:32.691Z,1.90
2019-05-11T14:30:03.954Z,2.00
2019-05-11T14:32:29.639Z,1.60
2019-05-11T14:34:58.232Z,1.70
2019-05-11T14:37:28.558Z,1.97
2019-05-11T14:39:57.866Z,1.93
2019-05-11T14:42:24.240Z,2.50
2019-05-11T14:44:52.803Z,3.50
2019-05-11T14:47:21.384Z,2.70
2019-05-11T14:49:49.957Z,5.27
2019-05-11T14:52:18.814Z,3.67
2019-05-11T14:54:48.597Z,2.90
2019-05-11T14:57:15.362Z,2.73
2019-05-11T14:59:44.084Z,2.30
2019-05-11T15:02:18.411Z,2.80
2019-05-11T15:04:48.365Z,2.80
2019-05-11T15:07:15.211Z,2.50
2019-05-11T15:09:44.045Z,2.83
2019-05-11T15:12:12.386Z,2.43
2019-05-11T15:14:40.702Z,2.70
2019-05-11T15:17:09.648Z,2.67
2019-05-11T15:19:38.324Z,2.57
2019-05-11T15:22:08.657Z,2.97
2019-05-11T15:24:38.355Z,3.00
2019-05-11T15:27:04.267Z,2.60
2019-05-11T15:29:32.903Z,2.70
2019-05-11T15:32:01.608Z,2.57
2019-05-11T15:34:29.935Z,2.57
2019-05-11T15:36:58.420Z,2.83
2019-05-11T15:39:28.689Z,2.70
2019-05-11T15:42:07.280Z,2.57
2019-05-11T15:44:23.990Z,2.70
2019-05-11T15:46:52.812Z,2.53
2019-05-11T15:49:21.233Z,2.33
2019-05-11T15:51:49.838Z,2.30
2019-05-11T15:54:18.685Z,2.20
2019-05-11T15:56:46.770Z,1.90
2019-05-11T15:59:15.103Z,2.23
2019-05-11T16:01:43.964Z,2.20
2019-05-11T16:04:12.588Z,1.70
2019-05-11T16:06:41.028Z,2.00
2019-05-11T16:09:09.791Z,1.57
2019-05-11T16:11:38.957Z,1.60
2019-05-11T16:14:08.562Z,1.70
2019-05-11T16:16:35.643Z,1.80
2019-05-11T16:19:13.616Z,1.60
2019-05-11T16:21:32.496Z,1.53
2019-05-11T16:24:01.208Z,1.50
2019-05-11T16:26:29.632Z,1.50
2019-05-11T16:28:58.265Z,1.50
2019-05-11T16:31:28.472Z,1.67
2019-05-11T16:33:55.776Z,1.80
2019-05-11T16:36:24.318Z,2.03
2019-05-11T16:38:53.008Z,1.80
2019-05-11T16:41:21.369Z,2.17
2019-05-11T16:43:50.060Z,2.27
2019-05-11T16:46:18.933Z,1.70
2019-05-11T16:48:47.305Z,2.13
2019-05-11T16:51:17.604Z,1.70
2019-05-11T16:53:44.370Z,1.57
2019-05-11T16:56:12.694Z,1.80
2019-05-11T16:58:41.280Z,1.70
2019-05-11T17:01:09.943Z,1.50
2019-05-11T17:03:38.610Z,1.67
2019-05-11T17:06:08.360Z,1.90
2019-05-11T17:08:35.543Z,2.47
2019-05-11T17:11:04.069Z,2.90
2019-05-11T17:13:32.456Z,6.33
2019-05-11T17:16:00.979Z,3.40
2019-05-11T17:18:29.507Z,2.77
2019-05-11T17:20:58.455Z,1.90
2019-05-11T17:23:29.800Z,1.73
2019-05-11T17:25:54.977Z,1.70
2019-05-11T17:28:23.269Z,2.10
2019-05-11T17:30:52.208Z,1.80
2019-05-11T17:33:20.669Z,2.03
2019-05-11T17:35:48.981Z,1.90
2019-05-11T17:38:18.411Z,1.90
2019-05-11T17:40:48.141Z,2.00
2019-05-11T17:43:14.825Z,2.10
2019-05-11T17:45:43.694Z,2.33
2019-05-11T17:48:12.155Z,2.23
2019-05-11T17:50:40.520Z,2.13
2019-05-11T17:53:09.251Z,2.23
2019-05-11T17:55:38.507Z,2.13
2019-05-11T17:58:08.519Z,1.70
2019-05-11T18:00:34.851Z,1.97
2019-05-11T18:03:05.369Z,2.10
2019-05-11T18:05:31.754Z,2.00
2019-05-11T18:08:00.420Z,1.80
2019-05-11T18:10:28.958Z,2.30
2019-05-11T18:12:57.787Z,2.30
2019-05-11T18:15:26.039Z,1.90
2019-05-11T18:17:54.868Z,2.20
2019-05-11T18:20:23.212Z,2.50
2019-05-11T18:22:51.934Z,1.80
2019-05-11T18:25:20.494Z,2.07
2019-05-11T18:27:48.990Z,1.93
2019-05-11T18:30:17.855Z,1.80
2019-05-11T18:32:48.815Z,5.43
2019-05-11T18:35:15.007Z,3.20
2019-05-11T18:37:43.528Z,2.37
2019-05-11T18:40:11.968Z,2.27
2019-05-11T18:42:40.319Z,2.00
2019-05-11T18:45:09.044Z,1.97
2019-05-11T18:47:38.286Z,2.40
2019-05-11T18:50:06.880Z,2.10
2019-05-11T18:52:35.879Z,1.90
2019-05-11T19:12:21.499Z,1.90
2019-05-11T19:14:49.972Z,1.80
2019-05-11T19:17:18.317Z,1.70
2019-05-11T19:19:48.617Z,1.83
2019-05-11T19:22:18.206Z,2.10
2019-05-11T19:24:44.318Z,2.10
2019-05-11T19:27:13.126Z,1.83
2019-05-11T19:29:42.093Z,2.10
2019-05-11T19:32:11.181Z,1.77
2019-05-11T19:34:39.798Z,2.00
2019-05-11T19:37:08.722Z,2.20
2019-05-11T19:39:38.405Z,2.27
2019-05-11T19:42:07.681Z,1.93
2019-05-11T19:44:34.170Z,1.83
2019-05-11T19:47:02.567Z,2.20
2019-05-11T19:49:31.157Z,2.00
2019-05-11T19:51:59.554Z,2.27
2019-05-11T19:54:28.915Z,2.20
2019-05-11T19:56:57.757Z,2.00
2019-05-11T19:59:24.988Z,2.37
2019-05-11T20:01:53.370Z,2.27
2019-05-11T20:04:22.030Z,2.10
2019-05-11T20:06:50.514Z,2.10
2019-05-11T20:09:19.197Z,2.13
2019-05-11T20:11:47.879Z,2.13
2019-05-11T20:14:16.611Z,1.87
2019-05-11T20:16:47.700Z,2.13
2019-05-11T20:19:14.279Z,2.57
2019-05-11T20:21:42.581Z,2.40
2019-05-11T20:24:10.916Z,2.20
2019-05-11T20:26:39.720Z,2.20
2019-05-11T20:29:08.354Z,2.67
2019-05-11T20:31:36.765Z,2.27
2019-05-11T20:34:05.774Z,2.00
2019-05-11T20:36:34.161Z,2.33
2019-05-11T20:39:02.524Z,2.23
2019-05-11T20:41:31.523Z,2.67
2019-05-11T20:43:59.908Z,2.60
2019-05-11T20:46:28.530Z,2.40
2019-05-11T20:48:57.934Z,2.60
2019-05-11T20:51:35.836Z,2.10
2019-05-11T20:53:54.299Z,2.23
2019-05-11T20:56:22.866Z,2.57
2019-05-11T20:58:55.362Z,2.83
2019-05-11T21:01:24.433Z,2.20
2019-05-11T21:03:52.866Z,2.27
2019-05-11T21:06:21.261Z,2.37
2019-05-11T21:08:50.126Z,1.70
2019-05-11T21:11:18.615Z,1.90
2019-05-11T21:13:48.074Z,1.80
2019-05-11T21:16:15.746Z,1.90
2019-05-11T21:18:44.429Z,1.53
2019-05-11T21:21:12.933Z,1.80
2019-05-11T21:23:41.639Z,1.70
2019-05-11T21:26:10.078Z,1.60
2019-05-11T21:28:38.651Z,1.47
2019-05-11T21:31:08.033Z,1.60
2019-05-11T21:33:37.833Z,1.33
2019-05-11T21:36:05.117Z,1.40
2019-05-11T21:38:33.887Z,1.30
2019-05-11T21:41:02.235Z,1.47
2019-05-11T21:43:30.888Z,1.47
2019-05-11T21:46:01.362Z,1.33
2019-05-11T21:48:28.107Z,1.47
2019-05-11T21:50:59.743Z,1.40
2019-05-11T21:53:25.228Z,1.30
2019-05-11T21:55:53.612Z,1.30
2019-05-11T21:58:22.247Z,1.20
2019-05-11T22:00:51.278Z,1.13
2019-05-11T22:03:19.650Z,1.20
2019-05-11T22:05:48.480Z,1.07
2019-05-11T22:08:17.825Z,1.97
2019-05-11T22:10:45.685Z,1.43
2019-05-11T22:13:14.000Z,1.23
2019-05-11T22:15:42.438Z,1.17
2019-05-11T22:18:10.882Z,1.30
2019-05-11T22:20:41.005Z,1.20
2019-05-11T22:23:08.598Z,1.10
2019-05-11T22:25:38.136Z,0.97
2019-05-11T22:28:05.193Z,1.23
2019-05-11T22:30:33.958Z,1.27
2019-05-11T22:33:02.341Z,1.13
2019-05-11T22:35:30.876Z,1.00
2019-05-11T22:37:59.705Z,1.00
2019-05-11T22:40:28.329Z,0.90
2019-05-11T22:42:58.415Z,0.90
2019-05-11T22:45:27.626Z,1.10
2019-05-11T22:47:53.766Z,1.10
2019-05-11T22:50:22.515Z,1.03
2019-05-11T22:52:51.508Z,1.10
2019-05-11T22:55:20.249Z,1.20
2019-05-11T22:57:48.897Z,1.43
2019-05-11T23:00:19.412Z,1.00
2019-05-11T23:02:48.468Z,0.93
2019-05-11T23:05:16.196Z,1.27
2019-05-11T23:07:44.845Z,1.20
2019-05-11T23:10:13.470Z,1.00
2019-05-11T23:12:41.916Z,1.37
2019-05-11T23:15:14.151Z,1.70
2019-05-11T23:17:42.716Z,1.17
2019-05-11T23:20:11.594Z,1.17
2019-05-11T23:22:56.132Z,0.90
2019-05-11T23:25:13.949Z,1.10
2019-05-11T23:27:42.488Z,1.20
2019-05-11T23:30:11.610Z,1.17
2019-05-11T23:32:39.952Z,1.00
2019-05-11T23:35:08.637Z,1.10
2019-05-11T23:37:38.584Z,1.10
2019-05-11T23:40:08.922Z,1.10
2019-05-11T23:42:35.285Z,1.10
2019-05-11T23:45:04.027Z,1.27
2019-05-11T23:47:32.573Z,1.27
2019-05-11T23:50:00.912Z,0.90
2019-05-11T23:52:29.781Z,1.20
2019-05-11T23:54:58.956Z,1.20
2019-05-11T23:57:27.065Z,1.00
2019-05-11T23:59:58.020Z,1.10
